.
WxDataArchive / Data Records for 2007-08-12
2007-08-11 August 2007 2007-08-13

Data Records for Sunday, 12 August 2007

Time	Temp	Chill	HIndex	Humid	Dewpt	 Wind 	HiWind	WindDir	Rain 	Barom 
-----	----	-----	------	-----	-----	------	------	-------	-----	----- 
00:00	72.0	72.0	72.0	77	64.4	0	1	90	0.00	29.993 
00:05	72.0	72.0	72.0	77	64.4	0	1	90	0.00	29.993 
00:10	71.8	71.8	71.8	77	64.2	0	1	90	0.00	29.993 
00:15	71.6	71.6	71.6	77	64.0	0	2	90	0.00	29.993 
00:20	71.6	71.6	71.6	77	64.0	0	1	90	0.00	29.994 
00:25	71.5	71.5	71.5	77	63.9	0	1	90	0.00	29.994 
00:30	71.3	71.3	71.3	77	63.7	0	1	90	0.00	29.993 
00:35	71.3	71.3	71.3	78	64.1	0	1	90	0.00	29.996 
00:40	71.1	71.1	71.1	78	63.9	0	1	90	0.00	29.994 
00:45	70.9	70.9	70.9	78	63.7	0	1	90	0.00	29.996 
00:50	70.8	70.8	70.8	78	63.6	0	1	90	0.00	29.997 
00:55	70.8	70.8	70.8	78	63.6	0	0	---	0.00	29.998 
01:00	70.6	70.6	70.6	78	63.4	0	0	---	0.00	29.999 
01:05	70.4	70.4	70.4	79	63.6	0	0	---	0.00	30.001 
01:10	70.3	70.3	70.3	79	63.5	0	0	---	0.00	30.000 
01:15	70.1	70.1	70.1	79	63.3	0	0	---	0.00	29.999 
01:20	69.9	69.9	69.9	80	63.4	0	0	---	0.00	29.998 
01:25	69.8	69.8	69.8	80	63.3	0	0	---	0.00	29.999 
01:30	69.8	69.8	69.8	80	63.3	0	1	90	0.00	29.999 
01:35	69.6	69.6	69.6	80	63.1	0	1	90	0.00	29.998 
01:40	69.6	69.6	69.6	81	63.5	0	0	---	0.00	29.995 
01:45	69.4	69.4	69.4	81	63.3	0	1	90	0.00	29.998 
01:50	69.4	69.4	69.4	81	63.3	0	0	---	0.00	29.998 
01:55	69.3	69.3	69.3	81	63.2	0	0	---	0.00	30.000 
02:00	69.1	69.1	69.1	82	63.4	0	0	---	0.00	30.004 
02:05	68.9	68.9	68.9	82	63.2	0	0	---	0.00	30.000 
02:10	68.6	68.6	68.6	83	63.2	0	0	---	0.00	30.002 
02:15	68.4	68.4	68.4	83	63.0	0	0	---	0.00	30.008 
02:20	68.1	68.1	68.1	84	63.1	0	0	---	0.00	30.010 
02:25	67.9	67.9	67.9	84	62.9	0	0	---	0.00	30.009 
02:30	67.8	67.8	67.8	85	63.1	0	0	---	0.00	30.006 
02:35	67.6	67.6	67.6	86	63.3	0	0	---	0.00	30.009 
02:40	67.4	67.4	67.4	86	63.1	0	0	---	0.00	30.007 
02:45	67.3	67.3	67.3	86	63.0	0	0	---	0.00	30.009 
02:50	67.3	67.3	67.3	87	63.3	0	0	---	0.00	30.009 
02:55	67.1	67.1	67.1	88	63.4	0	0	---	0.00	30.010 
03:00	67.1	67.1	67.1	88	63.4	0	0	---	0.00	30.008 
03:05	67.1	67.1	67.1	88	63.4	0	0	---	0.00	30.010 
03:10	66.9	66.9	66.9	89	63.5	0	0	---	0.00	30.012 
03:15	66.9	66.9	66.9	89	63.5	0	0	---	0.00	30.009 
03:20	66.9	66.9	66.9	89	63.5	0	0	---	0.00	30.010 
03:25	66.9	66.9	66.9	89	63.5	0	0	---	0.00	30.009 
03:30	66.9	66.9	66.9	89	63.5	0	0	---	0.00	30.012 
03:35	66.9	66.9	66.9	89	63.5	0	0	---	0.00	30.011 
03:40	66.9	66.9	66.9	89	63.5	0	0	---	0.00	30.008 
03:45	66.9	66.9	66.9	89	63.5	0	0	---	0.00	30.004 
03:50	66.9	66.9	66.9	89	63.5	0	0	---	0.00	30.000 
03:55	67.1	67.1	67.1	88	63.4	0	1	90	0.00	30.000 
04:00	67.1	67.1	67.1	88	63.4	0	0	---	0.00	29.999 
04:05	67.3	67.3	67.3	88	63.6	0	0	---	0.00	30.002 
04:10	67.3	67.3	67.3	88	63.6	0	0	---	0.00	30.000 
04:15	67.3	67.3	67.3	88	63.6	0	0	---	0.00	29.999 
04:20	67.3	67.3	67.3	88	63.6	0	0	---	0.00	29.999 
04:25	67.3	67.3	67.3	87	63.3	0	2	180	0.00	29.994 
04:30	67.4	67.4	67.4	87	63.4	0	1	180	0.00	29.996 
04:35	67.8	67.8	67.8	86	63.5	0	2	180	0.00	29.997 
04:40	68.1	68.1	68.1	84	63.1	0	2	225	0.00	29.997 
04:45	68.4	68.4	68.4	83	63.0	0	2	225	0.00	29.998 
04:50	68.6	68.6	68.6	83	63.2	0	3	225	0.00	29.998 
04:55	69.1	69.1	69.1	81	63.0	0	2	248	0.00	29.999 
05:00	69.4	69.4	69.4	80	63.0	0	2	248	0.00	29.999 
05:05	69.8	69.8	69.8	78	62.6	1	2	248	0.00	30.004 
05:10	69.9	69.9	69.9	78	62.7	0	2	248	0.00	30.011 
05:15	70.1	70.1	70.1	77	62.5	0	2	248	0.00	30.013 
05:20	70.3	70.3	70.3	77	62.7	0	1	248	0.00	30.015 
05:25	70.4	70.4	70.4	76	62.5	0	2	248	0.00	30.016 
05:30	70.6	70.6	70.6	76	62.7	0	2	248	0.00	30.015 
05:35	70.6	70.6	70.6	76	62.7	0	2	248	0.00	30.015 
05:40	70.8	70.8	70.8	77	63.2	0	3	248	0.00	30.014 
05:45	70.6	70.6	70.6	77	63.0	0	3	248	0.00	30.014 
05:50	70.4	70.4	70.4	77	62.8	0	2	248	0.00	30.015 
05:55	70.4	70.4	70.4	77	62.8	0	1	248	0.00	30.018 
06:00	70.4	70.4	70.4	77	62.8	0	1	248	0.00	30.016 
06:05	70.4	70.4	70.4	78	63.2	0	1	248	0.00	30.018 
06:10	70.6	70.6	70.6	77	63.0	1	3	248	0.00	30.037 
06:15	70.9	70.9	70.9	77	63.3	1	2	248	0.00	30.042 
06:20	70.9	70.9	70.9	77	63.3	1	2	248	0.00	30.037 
06:25	70.9	70.9	70.9	77	63.3	0	2	248	0.00	30.039 
06:30	70.8	70.8	70.8	77	63.2	0	2	248	0.00	30.033 
06:35	70.8	70.8	70.8	78	63.6	0	3	248	0.00	30.030 
06:40	70.9	70.9	70.9	78	63.7	0	2	270	0.00	30.025 
06:45	71.3	71.3	71.3	78	64.1	0	2	270	0.00	30.014 
06:50	71.8	71.8	71.8	78	64.6	0	2	270	0.00	30.005 
06:55	72.3	72.3	72.3	76	64.3	0	2	270	0.00	30.002 
07:00	72.7	72.7	72.7	75	64.3	1	3	270	0.00	29.995 
07:05	72.8	72.8	72.8	75	64.4	0	2	270	0.00	29.985 
07:10	72.7	72.7	72.7	75	64.3	1	3	270	0.00	29.972 
07:15	72.5	72.5	72.5	76	64.5	1	6	90	0.00	29.944 
07:20	72.3	72.3	72.3	77	64.7	1	4	90	0.00	29.961 
07:25	72.1	72.1	72.1	77	64.5	1	2	90	0.00	29.965 
07:30	72.1	72.1	72.1	78	64.8	1	3	90	0.00	29.961 
07:35	72.3	72.3	72.3	78	65.0	0	1	90	0.00	29.967 
07:40	73.0	73.0	73.0	76	65.0	1	3	90	0.00	29.962 
07:45	73.5	73.5	73.5	75	65.1	1	3	270	0.00	29.966 
07:50	73.7	73.7	73.7	74	64.9	2	4	270	0.00	29.969 
07:55	74.0	74.0	74.0	74	65.2	1	4	270	0.00	29.968 
08:00	74.4	74.4	74.4	73	65.2	1	4	270	0.00	29.971 
08:05	74.7	74.7	74.7	73	65.5	2	5	248	0.00	29.978 
08:10	74.9	74.9	74.9	73	65.6	0	4	225	0.00	29.977 
08:15	75.4	75.4	76.9	72	65.7	1	3	225	0.00	29.978 
08:20	76.0	76.0	77.6	71	65.9	1	4	270	0.00	29.973 
08:25	76.5	76.5	78.2	71	66.4	1	3	270	0.00	29.980 
08:30	77.2	77.2	79.0	70	66.6	1	2	270	0.00	29.982 
08:35	77.7	77.7	79.6	69	66.7	0	2	270	0.00	29.981 
08:40	78.1	78.1	80.0	67	66.2	1	3	270	0.00	29.980 
08:45	77.9	77.9	79.8	67	66.0	1	3	248	0.00	29.981 
08:50	78.3	78.3	80.3	67	66.4	1	3	248	0.00	29.981 
08:55	78.8	78.8	80.8	65	66.0	1	3	248	0.00	29.981 
09:00	79.2	79.2	81.3	65	66.4	1	3	248	0.00	29.982 
09:05	79.0	79.0	81.0	65	66.2	1	3	270	0.00	29.985 
09:10	79.2	79.2	81.4	66	66.8	1	2	270	0.00	29.985 
09:15	79.6	79.6	81.6	63	65.9	2	4	248	0.00	29.986 
09:20	79.9	79.9	82.2	65	67.1	1	3	248	0.00	29.988 
09:25	80.3	80.3	82.5	63	66.5	2	4	270	0.00	29.991 
09:30	80.7	80.7	83.4	65	67.8	1	2	270	0.00	29.995 
09:35	81.2	81.2	83.8	63	67.4	2	3	270	0.00	29.996 
09:40	81.6	81.6	83.9	60	66.3	1	3	292	0.00	29.996 
09:45	82.2	82.2	84.9	61	67.4	1	3	270	0.00	29.994 
09:50	82.8	82.8	85.2	58	66.5	0	2	225	0.00	29.994 
09:55	83.2	83.2	85.1	55	65.3	1	3	292	0.00	29.994 
10:00	83.4	83.4	85.2	54	65.0	1	3	270	0.00	29.994 
10:05	83.8	83.8	86.4	57	66.9	1	2	270	0.00	29.994 
10:10	84.0	84.0	85.6	52	64.4	1	3	270	0.00	29.995 
10:15	84.1	84.1	85.7	52	64.5	1	2	270	0.00	29.995 
10:20	84.3	84.3	85.7	51	64.2	1	2	315	0.00	29.999 
10:25	84.7	84.7	86.8	53	65.6	1	3	315	0.00	30.000 
10:30	84.9	84.9	86.3	50	64.2	1	3	315	0.00	29.999 
10:35	85.3	85.3	86.9	50	64.5	1	3	248	0.00	30.001 
10:40	85.5	85.5	87.4	51	65.3	1	2	270	0.00	30.000 
10:45	85.7	85.7	87.7	51	65.5	2	4	270	0.00	29.998 
10:50	85.9	85.9	88.6	53	66.7	1	3	248	0.00	29.997 
10:55	86.5	86.5	88.3	49	65.0	0	2	315	0.00	29.997 
11:00	86.7	86.7	88.9	50	65.8	1	3	270	0.00	30.001 
11:05	87.0	87.0	88.8	48	64.9	1	4	248	0.00	30.005 
11:10	87.2	87.2	89.4	49	65.7	1	3	270	0.00	30.004 
11:15	86.7	86.7	88.9	50	65.8	1	3	292	0.00	30.000 
11:20	87.0	87.0	89.4	50	66.1	2	4	338	0.00	30.001 
11:25	87.2	87.2	89.1	48	65.1	2	4	270	0.00	30.000 
11:30	87.0	87.0	89.4	50	66.1	1	3	270	0.00	30.000 
11:35	86.7	86.7	88.3	48	64.6	1	4	315	0.00	30.002 
11:40	86.3	86.3	88.3	50	65.4	2	4	270	0.00	30.001 
11:45	86.3	86.3	88.6	51	66.0	1	4	315	0.00	30.003 
11:50	86.3	86.3	88.9	52	66.6	1	3	270	0.00	30.005 
11:55	86.1	86.1	88.3	51	65.8	1	4	270	0.00	30.005 
12:00	85.5	85.5	87.4	51	65.3	1	3	292	0.00	30.007 
12:05	85.3	85.3	87.7	53	66.2	1	3	292	0.00	30.009 
12:10	85.1	85.1	87.4	53	66.0	1	3	315	0.00	30.008 
12:15	85.1	85.1	87.7	54	66.6	1	2	270	0.00	30.006 
12:20	85.3	85.3	88.5	56	67.8	0	3	248	0.00	30.004 
12:25	85.1	85.1	87.4	53	66.0	1	2	338	0.00	30.007 
12:30	84.9	84.9	87.6	55	66.9	1	2	315	0.00	30.007 
12:35	84.7	84.7	87.0	54	66.2	1	3	315	0.00	30.006 
12:40	84.9	84.9	87.6	55	66.9	1	2	315	0.00	30.004 
12:45	85.3	85.3	88.2	55	67.3	1	3	315	0.00	30.001 
12:50	85.9	85.9	89.2	55	67.8	1	3	315	0.00	30.000 
12:55	86.1	86.1	88.6	52	66.4	1	3	270	0.00	29.999 
13:00	86.1	86.1	88.6	52	66.4	1	2	315	0.00	30.001 
13:05	85.9	85.9	88.0	51	65.6	1	3	225	0.00	29.999 
13:10	85.9	85.9	88.3	52	66.2	1	3	270	0.00	29.997 
13:15	86.1	86.1	88.9	53	66.9	1	2	315	0.00	29.997 
13:20	86.5	86.5	88.9	51	66.2	0	1	338	0.00	29.994 
13:25	86.3	86.3	88.6	51	66.0	1	2	338	0.00	29.994 
13:30	86.5	86.5	89.6	53	67.3	1	3	315	0.00	29.994 
13:35	86.5	86.5	88.9	51	66.2	1	3	338	0.00	29.994 
13:40	86.7	86.7	89.6	52	66.9	1	3	270	0.00	29.992 
13:45	87.0	87.0	89.4	50	66.1	1	4	248	0.00	29.990 
13:50	87.0	87.0	89.4	50	66.1	1	4	292	0.00	29.989 
13:55	87.2	87.2	90.1	51	66.8	2	4	270	0.00	29.989 
14:00	87.4	87.4	90.1	50	66.4	2	4	270	0.00	29.988 
14:05	87.4	87.4	89.7	49	65.9	1	4	292	0.00	29.993 
14:10	87.4	87.4	89.4	48	65.3	1	3	315	0.00	29.991 
14:15	87.4	87.4	90.4	51	67.0	1	2	338	0.00	29.989 
14:20	87.6	87.6	89.7	48	65.4	0	1	315	0.00	29.985 
14:25	88.2	88.2	90.0	46	64.8	1	4	338	0.00	29.984 
14:30	87.8	87.8	89.7	47	65.0	1	3	270	0.00	29.983 
14:35	87.6	87.6	89.7	48	65.4	0	1	270	0.00	29.983 
14:40	87.6	87.6	90.4	50	66.6	1	4	270	0.00	29.985 
14:45	88.0	88.0	89.7	46	64.6	1	3	292	0.00	29.983 
14:50	88.4	88.4	90.3	46	64.9	0	2	292	0.00	29.982 
14:55	89.0	89.0	89.9	42	62.9	1	2	292	0.00	29.982 
15:00	89.0	89.0	91.2	46	65.5	0	2	292	0.00	29.981 
15:05	88.2	88.2	90.0	46	64.8	0	2	315	0.00	29.981 
15:10	88.0	88.0	90.3	48	65.8	0	1	315	0.00	29.982 
15:15	88.4	88.4	90.6	47	65.6	1	2	315	0.00	29.982 
15:20	88.4	88.4	91.0	48	66.2	1	3	270	0.00	29.982 
15:25	87.8	87.8	91.1	51	67.4	1	3	315	0.00	29.982 
15:30	87.6	87.6	89.1	46	64.2	1	3	315	0.00	29.983 
15:35	87.4	87.4	89.4	48	65.3	1	3	315	0.00	29.983 
15:40	87.6	87.6	89.7	48	65.4	0	2	315	0.00	29.983 
15:45	87.4	87.4	89.7	49	65.9	1	3	315	0.00	29.983 
15:50	87.0	87.0	89.4	50	66.1	1	2	315	0.00	29.982 
15:55	86.5	86.5	88.9	51	66.2	0	3	315	0.00	29.981 
16:00	86.5	86.5	88.6	50	65.6	1	3	270	0.00	29.981 
16:05	87.0	87.0	89.7	51	66.6	0	1	270	0.00	29.980 
16:10	87.0	87.0	90.1	52	67.2	0	2	270	0.00	29.980 
16:15	87.2	87.2	89.7	50	66.3	1	3	315	0.00	29.980 
16:20	87.0	87.0	89.1	49	65.5	1	2	315	0.00	29.979 
16:25	87.0	87.0	89.4	50	66.1	1	2	315	0.00	29.979 
16:30	87.0	87.0	89.4	50	66.1	0	2	315	0.00	29.979 
16:35	87.2	87.2	89.7	50	66.3	1	2	315	0.00	29.979 
16:40	86.7	86.7	88.9	50	65.8	0	2	315	0.00	29.978 
16:45	86.5	86.5	88.6	50	65.6	1	3	315	0.00	29.975 
16:50	86.5	86.5	88.1	48	64.4	0	3	315	0.00	29.974 
16:55	86.7	86.7	88.6	49	65.2	1	3	292	0.00	29.974 
17:00	86.5	86.5	88.6	50	65.6	1	2	315	0.00	29.974 
17:05	86.3	86.3	88.3	50	65.4	1	3	270	0.00	29.972 
17:10	86.3	86.3	88.9	52	66.6	1	2	292	0.00	29.970 
17:15	86.3	86.3	88.9	52	66.6	1	4	292	0.00	29.969 
17:20	86.1	86.1	88.6	52	66.4	0	1	315	0.00	29.967 
17:25	86.1	86.1	88.3	51	65.8	0	3	315	0.00	29.964 
17:30	85.9	85.9	88.6	53	66.7	0	2	292	0.00	29.964 
17:35	86.1	86.1	88.6	52	66.4	0	2	292	0.00	29.964 
17:40	86.1	86.1	88.3	51	65.8	0	2	292	0.00	29.965 
17:45	85.9	85.9	88.6	53	66.7	0	1	292	0.00	29.964 
17:50	85.7	85.7	88.6	54	67.1	0	1	292	0.00	29.964 
17:55	85.5	85.5	88.0	53	66.4	0	2	292	0.00	29.964 
18:00	85.5	85.5	88.3	54	66.9	0	1	292	0.00	29.964 
18:05	85.3	85.3	88.2	55	67.3	0	2	292	0.00	29.962 
18:10	85.1	85.1	87.7	54	66.6	0	1	292	0.00	29.962 
18:15	84.9	84.9	87.6	55	66.9	0	2	292	0.00	29.962 
18:20	84.9	84.9	87.6	55	66.9	0	1	292	0.00	29.962 
18:25	84.9	84.9	87.9	56	67.4	0	1	315	0.00	29.963 
18:30	84.7	84.7	87.6	56	67.2	0	1	315	0.00	29.963 
18:35	84.7	84.7	87.6	56	67.2	0	2	315	0.00	29.963 
18:40	84.5	84.5	87.0	55	66.5	0	2	315	0.00	29.963 
18:45	84.3	84.3	87.0	56	66.9	0	2	315	0.00	29.964 
18:50	84.1	84.1	86.9	57	67.2	0	1	315	0.00	29.964 
18:55	84.0	84.0	86.7	57	67.1	0	1	315	0.00	29.963 
19:00	83.8	83.8	86.4	57	66.9	0	2	315	0.00	29.962 
19:05	83.6	83.6	86.4	58	67.2	0	1	315	0.00	29.960 
19:10	83.2	83.2	86.0	59	67.4	0	1	315	0.00	29.962 
19:15	83.0	83.0	85.7	59	67.2	0	0	---	0.00	29.960 
19:20	82.6	82.6	85.1	59	66.8	0	1	315	0.00	29.958 
19:25	82.4	82.4	85.0	60	67.1	0	0	---	0.00	29.956 
19:30	82.0	82.0	84.6	61	67.2	0	0	---	0.00	29.959 
19:35	81.8	81.8	84.3	61	67.0	0	0	---	0.00	29.960 
19:40	81.6	81.6	84.2	62	67.3	0	0	---	0.00	29.962 
19:45	81.2	81.2	83.6	62	66.9	0	0	---	0.00	29.964 
19:50	80.9	80.9	83.5	64	67.6	0	0	---	0.00	29.965 
19:55	80.5	80.5	82.9	64	67.2	0	0	---	0.00	29.965 
20:00	80.3	80.3	82.8	65	67.4	0	0	---	0.00	29.965 
20:05	79.9	79.9	82.3	66	67.5	0	0	---	0.00	29.962 
20:10	79.6	79.6	82.0	67	67.7	0	0	---	0.00	29.963 
20:15	79.0	79.0	81.3	68	67.5	0	0	---	0.00	29.962 
20:20	78.6	78.6	80.8	69	67.6	0	0	---	0.00	29.963 
20:25	78.3	78.3	80.4	70	67.7	0	0	---	0.00	29.965 
20:30	77.9	77.9	79.9	71	67.7	0	0	---	0.00	29.970 
20:35	77.6	77.6	79.5	72	67.8	0	0	---	0.00	29.970 
20:40	77.4	77.4	79.3	72	67.6	0	0	---	0.00	29.970 
20:45	77.2	77.2	79.0	73	67.9	0	0	---	0.00	29.969 
20:50	77.0	77.0	78.7	73	67.7	0	0	---	0.00	29.971 
20:55	76.7	76.7	78.3	74	67.8	0	0	---	0.00	29.973 
21:00	76.7	76.7	78.3	75	68.2	0	0	---	0.00	29.973 
21:05	76.5	76.5	78.0	75	68.0	0	0	---	0.00	29.972 
21:10	76.5	76.5	78.0	76	68.4	0	0	---	0.00	29.971 
21:15	76.3	76.3	77.7	76	68.2	0	0	---	0.00	29.969 
21:20	76.3	76.3	77.7	76	68.2	0	0	---	0.00	29.972 
21:25	76.1	76.1	77.4	77	68.3	0	0	---	0.00	29.974 
21:30	76.1	76.1	77.4	76	68.0	0	0	---	0.00	29.975 
21:35	76.5	76.5	78.0	75	68.0	0	0	---	0.00	29.975 
21:40	76.7	76.7	78.3	75	68.2	0	0	---	0.00	29.975 
21:45	76.7	76.7	78.3	75	68.2	0	0	---	0.00	29.977 
21:50	76.5	76.5	78.1	74	67.6	0	0	---	0.00	29.977 
21:55	76.5	76.5	78.1	74	67.6	0	1	315	0.00	29.977 
22:00	76.7	76.7	78.3	73	67.4	0	1	315	0.00	29.978 
22:05	76.5	76.5	78.1	73	67.2	0	2	315	0.00	29.976 
22:10	76.5	76.5	78.1	73	67.2	0	1	315	0.00	29.975 
22:15	76.1	76.1	77.6	73	66.8	0	1	315	0.00	29.975 
22:20	76.0	76.0	77.5	73	66.7	0	1	315	0.00	29.975 
22:25	76.0	76.0	77.5	73	66.7	0	1	315	0.00	29.975 
22:30	75.8	75.8	77.3	73	66.5	0	2	292	0.00	29.974 
22:35	75.6	75.6	77.0	73	66.3	0	0	---	0.00	29.975 
22:40	75.4	75.4	76.8	73	66.1	0	1	292	0.00	29.974 
22:45	75.3	75.3	76.7	73	66.0	0	0	---	0.00	29.972 
22:50	75.1	75.1	76.5	73	65.8	0	0	---	0.00	29.974 
22:55	74.9	74.9	74.9	74	66.0	0	0	---	0.00	29.971 
23:00	74.6	74.6	74.6	75	66.1	0	0	---	0.00	29.970 
23:05	74.4	74.4	74.4	75	65.9	0	0	---	0.00	29.973 
23:10	74.2	74.2	74.2	75	65.8	0	0	---	0.00	29.975 
23:15	74.0	74.0	74.0	76	65.9	0	1	292	0.00	29.977 
23:20	73.9	73.9	73.9	76	65.8	0	1	292	0.00	29.978 
23:25	73.7	73.7	73.7	76	65.6	0	1	292	0.00	29.976 
23:30	73.7	73.7	73.7	76	65.6	0	1	292	0.00	29.978 
23:35	73.5	73.5	73.5	77	65.8	0	0	---	0.00	29.979 
23:40	73.2	73.2	73.2	77	65.5	0	1	292	0.00	29.983 
23:45	73.2	73.2	73.2	77	65.5	0	1	292	0.00	29.981 
23:50	72.8	72.8	72.8	78	65.5	0	0	---	0.00	29.979 
23:55	72.7	72.7	72.7	79	65.8	0	0	---	0.00	29.978 

CoCoRaHS
IN-AL-39
A2 Web Hosting
Creative Commons License
GoDaddy
Look for:

loaded 2017-12-12 14:37:35 • last modified 2010-11-18 10:43:29
Privacy PolicyDisclaimer
• wx.awcolley.com is powered by PmWiki v.2002016 •
• all content (unless otherwise noted) © 2017 A W Colley